createdAt,value
2016-04-30T00:00:40.460Z,0
2016-04-30T00:01:40.166Z,0
2016-04-30T00:02:40.480Z,0
2016-04-30T00:03:40.451Z,0
2016-04-30T00:04:40.502Z,0
2016-04-30T00:05:40.504Z,0
2016-04-30T00:06:40.507Z,0
2016-04-30T00:07:40.510Z,0
2016-04-30T00:08:40.528Z,0
2016-04-30T00:09:40.531Z,0
2016-04-30T00:10:40.534Z,0
2016-04-30T00:11:40.551Z,0
2016-04-30T00:12:40.398Z,0
2016-04-30T00:13:40.542Z,0
2016-04-30T00:14:40.404Z,0
2016-04-30T00:15:40.422Z,0
2016-04-30T00:16:40.425Z,0
2016-04-30T00:17:40.270Z,0
2016-04-30T00:18:40.664Z,0
2016-04-30T00:19:40.433Z,0
2016-04-30T00:20:40.451Z,0
2016-04-30T00:21:40.594Z,0
2016-04-30T00:22:40.300Z,0
2016-04-30T00:23:40.475Z,0
2016-04-30T00:24:40.617Z,0
2016-04-30T00:25:40.621Z,0
2016-04-30T00:26:40.483Z,0
2016-04-30T00:27:40.470Z,0
2016-04-30T00:28:40.488Z,0
2016-04-30T00:29:40.647Z,0
2016-04-30T00:30:40.665Z,0
2016-04-30T00:31:40.684Z,0
2016-04-30T00:32:40.671Z,0
2016-04-30T00:33:41.142Z,0
2016-04-30T00:34:40.676Z,0
2016-04-30T00:35:40.522Z,0
2016-04-30T00:36:40.697Z,0
2016-04-30T00:37:40.528Z,0
2016-04-30T00:38:40.530Z,0
2016-04-30T00:39:40.704Z,0
2016-04-30T00:40:40.707Z,0
2016-04-30T00:41:40.413Z,0
2016-04-30T00:42:40.729Z,0
2016-04-30T00:43:40.732Z,0
2016-04-30T00:44:40.734Z,0
2016-04-30T00:45:40.737Z,0
2016-04-30T00:46:40.740Z,0
2016-04-30T00:47:40.601Z,0
2016-04-30T00:48:40.870Z,0
2016-04-30T00:49:40.764Z,0
2016-04-30T00:50:40.297Z,0
2016-04-30T00:51:40.769Z,0
2016-04-30T00:52:40.772Z,0
2016-04-30T00:53:40.181Z,0
2016-04-30T00:54:40.480Z,0
2016-04-30T00:55:40.795Z,0
2016-04-30T00:56:40.657Z,0
2016-04-30T00:57:40.644Z,0
2016-04-30T00:58:40.819Z,0
2016-04-30T00:59:40.822Z,0
2016-04-30T01:00:40.824Z,0
2016-04-30T01:01:40.827Z,0
2016-04-30T01:02:40.688Z,0
2016-04-30T01:03:40.895Z,0
2016-04-30T01:04:40.850Z,0
2016-04-30T01:05:40.696Z,0
2016-04-30T01:06:40.544Z,0
2016-04-30T01:07:40.718Z,0
2016-04-30T01:08:40.721Z,0
2016-04-30T01:09:40.754Z,0
2016-04-30T01:10:40.726Z,0
2016-04-30T01:11:40.901Z,0
2016-04-30T01:12:40.919Z,0
2016-04-30T01:13:40.593Z,0
2016-04-30T01:14:40.752Z,0
2016-04-30T01:15:40.912Z,0
2016-04-30T01:16:40.773Z,0
2016-04-30T01:17:40.776Z,0
2016-04-30T01:18:40.701Z,0
2016-04-30T01:19:40.937Z,0
2016-04-30T01:20:40.940Z,0
2016-04-30T01:21:40.943Z,0
2016-04-30T01:22:40.820Z,0
2016-04-30T01:23:40.980Z,0
2016-04-30T01:24:40.983Z,0
2016-04-30T01:25:40.969Z,0
2016-04-30T01:26:40.988Z,0
2016-04-30T01:27:40.834Z,0
2016-04-30T01:28:40.836Z,0
2016-04-30T01:29:40.996Z,0
2016-04-30T01:30:41.013Z,0
2016-04-30T01:31:41.016Z,0
2016-04-30T01:32:41.005Z,0
2016-04-30T01:33:40.928Z,0
2016-04-30T01:34:41.025Z,0
2016-04-30T01:35:41.027Z,0
2016-04-30T01:36:41.046Z,0
2016-04-30T01:37:41.049Z,0
2016-04-30T01:38:41.051Z,0
2016-04-30T01:39:41.069Z,0
2016-04-30T01:40:41.057Z,0
2016-04-30T01:41:41.059Z,0
2016-04-30T01:42:41.077Z,0
2016-04-30T01:43:41.096Z,0
2016-04-30T01:44:40.927Z,0
2016-04-30T01:45:40.946Z,0
2016-04-30T01:46:41.088Z,0
2016-04-30T01:47:41.106Z,0
2016-04-30T01:48:41.547Z,0
2016-04-30T01:49:41.128Z,0
2016-04-30T01:50:40.958Z,0
2016-04-30T01:51:41.118Z,0
2016-04-30T01:52:41.136Z,0
2016-04-30T01:53:41.139Z,0
2016-04-30T01:54:41.125Z,0
2016-04-30T01:55:41.159Z,0
2016-04-30T01:56:41.006Z,0
2016-04-30T01:57:40.992Z,0
2016-04-30T01:58:41.167Z,0
2016-04-30T01:59:41.170Z,0
2016-04-30T02:00:41.173Z,0
2016-04-30T02:01:41.035Z,0
2016-04-30T02:02:41.178Z,0
2016-04-30T02:03:41.150Z,0
2016-04-30T02:04:41.044Z,0
2016-04-30T02:05:41.202Z,0
2016-04-30T02:06:41.080Z,0
2016-04-30T02:07:40.910Z,0
2016-04-30T02:08:41.226Z,0
2016-04-30T02:09:40.916Z,0
2016-04-30T02:10:41.231Z,0
2016-04-30T02:11:41.234Z,0
2016-04-30T02:12:41.237Z,0
2016-04-30T02:13:41.240Z,0
2016-04-30T02:14:41.273Z,0
2016-04-30T02:15:41.259Z,0
2016-04-30T02:16:41.278Z,0
2016-04-30T02:17:41.282Z,0
2016-04-30T02:18:41.206Z,0
2016-04-30T02:19:41.131Z,0
2016-04-30T02:20:41.289Z,0
2016-04-30T02:21:41.151Z,0
2016-04-30T02:22:41.357Z,0
2016-04-30T02:23:41.157Z,0
2016-04-30T02:24:41.175Z,0
2016-04-30T02:25:41.162Z,0
2016-04-30T02:26:41.336Z,0
2016-04-30T02:27:41.339Z,0
2016-04-30T02:28:41.358Z,0
2016-04-30T02:29:41.203Z,0
2016-04-30T02:30:41.364Z,0
2016-04-30T02:31:41.209Z,0
2016-04-30T02:32:41.212Z,0
2016-04-30T02:33:41.746Z,0
2016-04-30T02:34:41.374Z,0
2016-04-30T02:35:41.376Z,0
2016-04-30T02:36:41.082Z,0
2016-04-30T02:37:41.397Z,0
2016-04-30T02:38:41.244Z,0
2016-04-30T02:39:41.121Z,0
2016-04-30T02:40:41.108Z,0
2016-04-30T02:41:41.424Z,0
2016-04-30T02:42:41.410Z,0
2016-04-30T02:43:41.288Z,0
2016-04-30T02:44:41.276Z,0
2016-04-30T02:45:41.451Z,0
2016-04-30T02:46:41.453Z,0
2016-04-30T02:47:41.299Z,0
2016-04-30T02:48:41.317Z,0
2016-04-30T02:49:41.462Z,0
2016-04-30T02:50:41.464Z,0
2016-04-30T02:51:41.482Z,0
2016-04-30T02:52:41.484Z,0
2016-04-30T02:53:41.487Z,0
2016-04-30T02:54:41.349Z,0
2016-04-30T02:55:41.336Z,0
2016-04-30T02:56:41.512Z,0
2016-04-30T02:57:41.529Z,0
2016-04-30T02:58:41.517Z,0
2016-04-30T02:59:41.222Z,0
2016-04-30T03:00:41.521Z,0
2016-04-30T03:01:41.539Z,0
2016-04-30T03:02:41.386Z,0
2016-04-30T03:03:41.967Z,0
2016-04-30T03:04:41.986Z,0
2016-04-30T03:05:41.566Z,0
2016-04-30T03:06:41.569Z,0
2016-04-30T03:07:41.556Z,0
2016-04-30T03:08:41.575Z,0
2016-04-30T03:09:41.436Z,0
2016-04-30T03:10:41.439Z,0
2016-04-30T03:11:41.441Z,0
2016-04-30T03:12:41.444Z,0
2016-04-30T03:13:41.604Z,0
2016-04-30T03:14:41.449Z,0
2016-04-30T03:15:41.610Z,0
2016-04-30T03:16:41.659Z,0
2016-04-30T03:17:41.474Z,0
2016-04-30T03:18:41.898Z,0
2016-04-30T03:19:41.463Z,0
2016-04-30T03:20:41.637Z,0
2016-04-30T03:21:41.500Z,0
2016-04-30T03:22:41.550Z,0
2016-04-30T03:23:41.521Z,0
2016-04-30T03:24:41.539Z,0
2016-04-30T03:25:41.527Z,0
2016-04-30T03:26:41.373Z,0
2016-04-30T03:27:41.594Z,0
2016-04-30T03:28:41.534Z,0
2016-04-30T03:29:41.537Z,0
2016-04-30T03:30:41.697Z,0
2016-04-30T03:31:41.699Z,0
2016-04-30T03:32:41.751Z,0
2016-04-30T03:33:41.821Z,0
2016-04-30T03:34:43.113Z,0
2016-04-30T03:35:41.621Z,0
2016-04-30T03:36:41.989Z,0
2016-04-30T03:37:41.873Z,0
2016-04-30T03:38:42.050Z,0
2016-04-30T03:39:42.072Z,0
2016-04-30T03:40:42.108Z,0
2016-04-30T03:41:42.130Z,0
2016-04-30T03:42:41.984Z,0
2016-04-30T03:43:41.994Z,0
2016-04-30T03:44:42.159Z,0
2016-04-30T03:45:42.013Z,0
2016-04-30T03:46:41.883Z,0
2016-04-30T03:47:42.044Z,0
2016-04-30T03:48:42.268Z,0
2016-04-30T03:49:42.445Z,0
2016-04-30T03:50:42.060Z,0
2016-04-30T03:51:41.910Z,0
2016-04-30T03:52:42.101Z,0
2016-04-30T03:53:42.260Z,0
2016-04-30T03:54:42.092Z,0
2016-04-30T03:55:42.111Z,0
2016-04-30T03:56:42.255Z,0
2016-04-30T03:57:42.289Z,0
2016-04-30T03:58:42.277Z,0
2016-04-30T03:59:42.107Z,0
2016-04-30T04:00:42.158Z,0
2016-04-30T04:01:42.286Z,0
2016-04-30T04:02:42.289Z,0
2016-04-30T04:03:42.308Z,0
2016-04-30T04:04:42.763Z,0
2016-04-30T04:05:42.312Z,0
2016-04-30T04:06:42.174Z,0
2016-04-30T04:07:42.333Z,0
2016-04-30T04:08:42.196Z,0
2016-04-30T04:09:42.340Z,0
2016-04-30T04:10:42.342Z,0
2016-04-30T04:11:42.345Z,0
2016-04-30T04:12:42.206Z,0
2016-04-30T04:13:42.209Z,0
2016-04-30T04:14:42.071Z,0
2016-04-30T04:15:42.371Z,0
2016-04-30T04:16:42.389Z,0
2016-04-30T04:17:42.376Z,0
2016-04-30T04:18:42.238Z,0
2016-04-30T04:19:43.162Z,0
2016-04-30T04:20:42.400Z,0
2016-04-30T04:21:42.418Z,0
2016-04-30T04:22:42.420Z,0
2016-04-30T04:23:42.423Z,0
2016-04-30T04:24:42.269Z,0
2016-04-30T04:25:42.428Z,0
2016-04-30T04:26:42.135Z,0
2016-04-30T04:27:42.278Z,0
2016-04-30T04:28:42.141Z,0
2016-04-30T04:29:42.455Z,0
2016-04-30T04:30:42.302Z,0
2016-04-30T04:31:42.460Z,0
2016-04-30T04:32:42.322Z,0
2016-04-30T04:33:42.340Z,0
2016-04-30T04:34:42.188Z,0
2016-04-30T04:35:42.502Z,0
2016-04-30T04:36:42.333Z,0
2016-04-30T04:37:42.368Z,0
2016-04-30T04:38:42.526Z,0
2016-04-30T04:39:42.513Z,0
2016-04-30T04:40:42.501Z,0
2016-04-30T04:41:42.518Z,0
2016-04-30T04:42:42.537Z,0
2016-04-30T04:43:42.540Z,0
2016-04-30T04:44:42.558Z,0
2016-04-30T04:45:42.529Z,0
2016-04-30T04:46:42.392Z,0
2016-04-30T04:47:42.410Z,0
2016-04-30T04:48:42.865Z,0
2016-04-30T04:49:42.603Z,5
2016-04-30T04:50:42.558Z,5
2016-04-30T04:51:42.577Z,5
2016-04-30T04:52:42.594Z,5
2016-04-30T04:53:42.458Z,5
2016-04-30T04:54:42.444Z,5
2016-04-30T04:55:42.619Z,5
2016-04-30T04:56:42.449Z,5
2016-04-30T04:57:42.452Z,5
2016-04-30T04:58:42.471Z,5
2016-04-30T04:59:42.645Z,5
2016-04-30T05:00:42.492Z,5
2016-04-30T05:01:56.572Z,5
2016-04-30T05:02:42.497Z,5
2016-04-30T05:03:42.655Z,5
2016-04-30T05:04:42.674Z,5
2016-04-30T05:05:42.505Z,5
2016-04-30T05:06:42.524Z,5
2016-04-30T05:07:42.370Z,5
2016-04-30T05:08:42.701Z,5
2016-04-30T05:09:42.687Z,5
2016-04-30T05:10:42.565Z,5
2016-04-30T05:11:42.552Z,5
2016-04-30T05:12:42.696Z,5
2016-04-30T05:13:42.807Z,5
2016-04-30T05:14:42.717Z,5
2016-04-30T05:15:42.720Z,5
2016-04-30T05:16:42.581Z,5
2016-04-30T05:17:42.740Z,5
2016-04-30T05:18:42.587Z,5
2016-04-30T05:19:43.528Z,5
2016-04-30T05:20:42.748Z,5
2016-04-30T05:21:42.767Z,5
2016-04-30T05:22:42.597Z,5
2016-04-30T05:23:42.631Z,5
2016-04-30T05:24:42.791Z,5
2016-04-30T05:25:42.622Z,5
2016-04-30T05:26:42.639Z,5
2016-04-30T05:27:42.642Z,5
2016-04-30T05:28:42.802Z,5
2016-04-30T05:29:42.647Z,5
2016-04-30T05:30:42.666Z,5
2016-04-30T05:31:42.685Z,5
2016-04-30T05:32:42.671Z,5
2016-04-30T05:33:43.205Z,5
2016-04-30T05:34:42.583Z,5
2016-04-30T05:35:42.695Z,5
2016-04-30T05:36:42.839Z,5
2016-04-30T05:37:42.544Z,5
2016-04-30T05:38:42.860Z,5
2016-04-30T05:39:42.706Z,5
2016-04-30T05:40:42.865Z,5
2016-04-30T05:41:42.867Z,5
2016-04-30T05:42:42.745Z,5
2016-04-30T05:43:42.888Z,5
2016-04-30T05:44:42.735Z,5
2016-04-30T05:45:42.894Z,5
2016-04-30T05:46:42.896Z,10
2016-04-30T05:47:42.899Z,10
2016-04-30T05:48:42.777Z,10
2016-04-30T05:49:42.936Z,10
2016-04-30T05:50:42.923Z,10
2016-04-30T05:51:42.925Z,10
2016-04-30T05:52:42.787Z,10
2016-04-30T05:53:42.806Z,10
2016-04-30T05:54:42.636Z,10
2016-04-30T05:55:42.967Z,10
2016-04-30T05:56:42.970Z,10
2016-04-30T05:57:42.661Z,10
2016-04-30T05:58:42.836Z,10
2016-04-30T05:59:42.979Z,10
2016-04-30T06:00:42.683Z,10
2016-04-30T06:01:42.827Z,15
2016-04-30T06:02:42.847Z,15
2016-04-30T06:03:42.864Z,15
2016-04-30T06:04:42.945Z,15
2016-04-30T06:05:42.869Z,15
2016-04-30T06:06:42.872Z,15
2016-04-30T06:07:43.016Z,15
2016-04-30T06:08:42.737Z,15
2016-04-30T06:09:43.037Z,15
2016-04-30T06:10:42.883Z,15
2016-04-30T06:11:43.058Z,15
2016-04-30T06:12:42.904Z,15
2016-04-30T06:13:43.063Z,15
2016-04-30T06:14:42.909Z,15
2016-04-30T06:15:42.928Z,15
2016-04-30T06:16:42.618Z,15
2016-04-30T06:17:43.089Z,15
2016-04-30T06:18:43.092Z,15
2016-04-30T06:19:43.970Z,20
2016-04-30T06:20:42.942Z,20
2016-04-30T06:21:42.959Z,20
2016-04-30T06:22:43.691Z,20
2016-04-30T06:23:42.975Z,20
2016-04-30T06:24:42.977Z,20
2016-04-30T06:25:42.980Z,20
2016-04-30T06:26:43.139Z,20
2016-04-30T06:27:43.158Z,20
2016-04-30T06:28:43.160Z,20
2016-04-30T06:29:43.022Z,20
2016-04-30T06:30:43.025Z,20
2016-04-30T06:31:43.013Z,20
2016-04-30T06:32:43.186Z,20
2016-04-30T06:33:43.189Z,20
2016-04-30T06:34:43.051Z,20
2016-04-30T06:35:43.194Z,25
2016-04-30T06:36:43.213Z,25
2016-04-30T06:37:43.059Z,25
2016-04-30T06:38:43.062Z,25
2016-04-30T06:39:42.909Z,25
2016-04-30T06:40:43.068Z,25
2016-04-30T06:41:43.070Z,25
2016-04-30T06:42:43.229Z,25
2016-04-30T06:43:42.934Z,25
2016-04-30T06:44:43.250Z,25
2016-04-30T06:45:43.253Z,25
2016-04-30T06:46:43.255Z,25
2016-04-30T06:47:43.101Z,20
2016-04-30T06:48:43.261Z,20
2016-04-30T06:49:43.342Z,20
2016-04-30T06:50:43.282Z,20
2016-04-30T06:51:43.300Z,20
2016-04-30T06:52:43.130Z,20
2016-04-30T06:53:43.150Z,20
2016-04-30T06:54:43.153Z,20
2016-04-30T06:55:43.170Z,15
2016-04-30T06:56:43.313Z,15
2016-04-30T06:57:43.316Z,15
2016-04-30T06:58:43.319Z,15
2016-04-30T06:59:43.025Z,15
2016-04-30T07:00:43.341Z,15
2016-04-30T07:01:43.358Z,15
2016-04-30T07:02:43.346Z,15
2016-04-30T07:03:43.364Z,10
2016-04-30T07:04:42.944Z,10
2016-04-30T07:05:43.384Z,10
2016-04-30T07:06:43.075Z,10
2016-04-30T07:07:43.077Z,10
2016-04-30T07:08:43.393Z,15
2016-04-30T07:09:43.396Z,15
2016-04-30T07:10:43.242Z,15
2016-04-30T07:11:43.416Z,15
2016-04-30T07:12:43.107Z,15
2016-04-30T07:13:43.265Z,15
2016-04-30T07:14:43.268Z,20
2016-04-30T07:15:43.131Z,20
2016-04-30T07:16:43.446Z,20
2016-04-30T07:17:43.432Z,25
2016-04-30T07:18:43.435Z,25
2016-04-30T07:19:43.562Z,30
2016-04-30T07:20:43.456Z,30
2016-04-30T07:21:43.318Z,30
2016-04-30T07:22:43.478Z,35
2016-04-30T07:23:43.339Z,35
2016-04-30T07:24:43.483Z,40
2016-04-30T07:25:43.204Z,40
2016-04-30T07:26:43.347Z,40
2016-04-30T07:27:43.350Z,40
2016-04-30T07:28:43.353Z,35
2016-04-30T07:29:43.512Z,35
2016-04-30T07:30:43.514Z,30
2016-04-30T07:31:43.377Z,30
2016-04-30T07:32:43.363Z,30
2016-04-30T07:33:43.522Z,30
2016-04-30T07:34:44.275Z,30
2016-04-30T07:35:43.544Z,30
2016-04-30T07:36:43.405Z,30
2016-04-30T07:37:43.565Z,30
2016-04-30T07:38:43.568Z,30
2016-04-30T07:39:43.570Z,30
2016-04-30T07:40:43.573Z,35
2016-04-30T07:41:43.451Z,35
2016-04-30T07:42:43.578Z,35
2016-04-30T07:43:43.581Z,35
2016-04-30T07:44:43.443Z,40
2016-04-30T07:45:43.601Z,40
2016-04-30T07:46:43.604Z,45
2016-04-30T07:47:43.607Z,45
2016-04-30T07:48:43.641Z,45
2016-04-30T07:49:43.753Z,50
2016-04-30T07:50:43.350Z,55
2016-04-30T07:51:43.164Z,55
2016-04-30T07:52:43.339Z,60
2016-04-30T07:53:43.654Z,65
2016-04-30T07:54:43.657Z,70
2016-04-30T07:55:43.503Z,70
2016-04-30T07:56:43.522Z,70
2016-04-30T07:57:43.681Z,70
2016-04-30T07:58:43.683Z,70
2016-04-30T07:59:43.217Z,75
2016-04-30T08:00:43.392Z,70
2016-04-30T08:01:57.644Z,70
2016-04-30T08:02:43.553Z,70
2016-04-30T08:03:43.713Z,70
2016-04-30T08:04:45.027Z,70
2016-04-30T08:05:43.749Z,70
2016-04-30T08:06:43.579Z,70
2016-04-30T08:07:43.739Z,70
2016-04-30T08:08:43.758Z,65
2016-04-30T08:09:43.604Z,65
2016-04-30T08:10:43.762Z,65
2016-04-30T08:11:43.765Z,65
2016-04-30T08:12:43.627Z,65
2016-04-30T08:13:43.786Z,65
2016-04-30T08:14:43.789Z,65
2016-04-30T08:15:43.635Z,65
2016-04-30T08:16:43.810Z,65
2016-04-30T08:17:43.828Z,65
2016-04-30T08:18:43.815Z,65
2016-04-30T08:19:44.099Z,65
2016-04-30T08:20:43.680Z,65
2016-04-30T08:21:43.839Z,65
2016-04-30T08:22:43.842Z,60
2016-04-30T08:23:43.689Z,65
2016-04-30T08:24:43.723Z,65
2016-04-30T08:25:43.709Z,65
2016-04-30T08:26:43.633Z,65
2016-04-30T08:27:43.871Z,65
2016-04-30T08:28:43.748Z,70
2016-04-30T08:29:43.579Z,70
2016-04-30T08:30:43.895Z,70
2016-04-30T08:31:44.819Z,70
2016-04-30T08:32:43.931Z,75
2016-04-30T08:33:43.605Z,75
2016-04-30T08:34:45.921Z,75
2016-04-30T08:35:43.923Z,75
2016-04-30T08:36:43.927Z,75
2016-04-30T08:37:43.788Z,75
2016-04-30T08:38:43.946Z,80
2016-04-30T08:39:43.965Z,80
2016-04-30T08:40:43.655Z,85
2016-04-30T08:41:44.080Z,85
2016-04-30T08:42:43.973Z,90
2016-04-30T08:43:43.992Z,95
2016-04-30T08:44:43.838Z,95
2016-04-30T08:45:43.857Z,100
2016-04-30T08:46:44.015Z,100
2016-04-30T08:47:44.018Z,100
2016-04-30T08:48:43.881Z,100
2016-04-30T08:49:43.571Z,100
2016-04-30T08:50:44.042Z,95
2016-04-30T08:51:44.029Z,90
2016-04-30T08:52:43.892Z,90
2016-04-30T08:53:43.894Z,90
2016-04-30T08:54:43.896Z,85
2016-04-30T08:55:43.914Z,85
2016-04-30T08:56:44.073Z,85
2016-04-30T08:57:43.936Z,85
2016-04-30T08:58:43.922Z,85
2016-04-30T08:59:43.956Z,80
2016-04-30T09:00:43.803Z,80
2016-04-30T09:01:44.103Z,75
2016-04-30T09:02:44.121Z,75
2016-04-30T09:03:44.124Z,75
2016-04-30T09:04:44.767Z,85
2016-04-30T09:05:43.989Z,95
2016-04-30T09:06:44.147Z,100
2016-04-30T09:07:44.150Z,105
2016-04-30T09:08:43.856Z,105
2016-04-30T09:09:44.155Z,105
2016-04-30T09:10:44.001Z,110
2016-04-30T09:11:44.035Z,110
2016-04-30T09:12:44.007Z,110
2016-04-30T09:13:43.885Z,105
2016-04-30T09:14:44.200Z,105
2016-04-30T09:15:44.031Z,110
2016-04-30T09:16:44.049Z,105
2016-04-30T09:17:44.115Z,110
2016-04-30T09:18:44.070Z,115
2016-04-30T09:19:44.307Z,120
2016-04-30T09:20:44.232Z,125
2016-04-30T09:21:44.235Z,130
2016-04-30T09:22:44.112Z,125
2016-04-30T09:23:44.318Z,120
2016-04-30T09:24:44.274Z,110
2016-04-30T09:25:44.121Z,105
2016-04-30T09:26:44.278Z,100
2016-04-30T09:27:44.141Z,95
2016-04-30T09:28:43.988Z,85
2016-04-30T09:29:44.397Z,80
2016-04-30T09:30:44.008Z,80
2016-04-30T09:31:46.121Z,85
2016-04-30T09:32:44.170Z,85
2016-04-30T09:33:44.330Z,85
2016-04-30T09:34:47.738Z,80
2016-04-30T09:35:44.383Z,80
2016-04-30T09:36:44.213Z,80
2016-04-30T09:37:44.387Z,80
2016-04-30T09:38:44.374Z,75
2016-04-30T09:39:44.236Z,65
2016-04-30T09:40:44.380Z,65
2016-04-30T09:41:44.382Z,60
2016-04-30T09:42:44.244Z,55
2016-04-30T09:43:44.418Z,50
2016-04-30T09:44:44.266Z,50
2016-04-30T09:45:44.424Z,45
2016-04-30T09:46:44.426Z,45
2016-04-30T09:47:44.274Z,45
2016-04-30T09:48:44.292Z,45
2016-04-30T09:49:45.544Z,50
2016-04-30T09:50:44.157Z,50
2016-04-30T09:51:44.300Z,50
2016-04-30T09:52:44.303Z,50
2016-04-30T09:53:44.462Z,50
2016-04-30T09:54:44.479Z,50
2016-04-30T09:55:44.482Z,55
2016-04-30T09:56:44.484Z,55
2016-04-30T09:57:44.487Z,55
2016-04-30T09:58:44.350Z,55
2016-04-30T09:59:44.509Z,55
2016-04-30T10:00:44.355Z,60
2016-04-30T10:01:44.514Z,60
2016-04-30T10:02:44.533Z,60
2016-04-30T10:03:44.426Z,60
2016-04-30T10:04:44.428Z,65
2016-04-30T10:05:44.556Z,65
2016-04-30T10:06:44.418Z,65
2016-04-30T10:07:44.561Z,65
2016-04-30T10:08:44.424Z,65
2016-04-30T10:09:44.269Z,70
2016-04-30T10:10:44.585Z,70
2016-04-30T10:11:44.588Z,70
2016-04-30T10:12:44.606Z,70
2016-04-30T10:13:44.610Z,70
2016-04-30T10:14:44.471Z,70
2016-04-30T10:15:44.630Z,75
2016-04-30T10:16:44.648Z,75
2016-04-30T10:17:45.666Z,75
2016-04-30T10:18:44.185Z,70
2016-04-30T10:19:44.375Z,70
2016-04-30T10:20:44.675Z,70
2016-04-30T10:21:44.662Z,65
2016-04-30T10:22:44.665Z,60
2016-04-30T10:23:44.352Z,55
2016-04-30T10:24:44.668Z,45
2016-04-30T10:25:44.685Z,40
2016-04-30T10:26:44.547Z,40
2016-04-30T10:27:44.707Z,40
2016-04-30T10:28:44.553Z,40
2016-04-30T10:29:44.712Z,40
2016-04-30T10:30:44.559Z,35
2016-04-30T10:31:44.576Z,35
2016-04-30T10:32:44.579Z,35
2016-04-30T10:33:44.739Z,30
2016-04-30T10:34:44.741Z,30
2016-04-30T10:35:44.759Z,30
2016-04-30T10:36:44.589Z,30
2016-04-30T10:37:44.765Z,30
2016-04-30T10:38:44.767Z,30
2016-04-30T10:39:44.770Z,30
2016-04-30T10:40:44.773Z,30
2016-04-30T10:41:44.791Z,30
2016-04-30T10:42:44.481Z,30
2016-04-30T10:43:44.797Z,30
2016-04-30T10:44:44.799Z,30
2016-04-30T10:45:44.802Z,35
2016-04-30T10:46:44.852Z,35
2016-04-30T10:47:44.838Z,35
2016-04-30T10:48:44.685Z,40
2016-04-30T10:49:45.688Z,40
2016-04-30T10:50:44.706Z,45
2016-04-30T10:51:44.849Z,45
2016-04-30T10:52:44.851Z,45
2016-04-30T10:53:44.558Z,45
2016-04-30T10:54:44.718Z,50
2016-04-30T10:55:44.579Z,50
2016-04-30T10:56:44.566Z,50
2016-04-30T10:57:44.740Z,50
2016-04-30T10:58:44.899Z,50
2016-04-30T10:59:44.902Z,45
2016-04-30T11:00:44.904Z,45
2016-04-30T11:01:44.767Z,45
2016-04-30T11:02:44.925Z,45
2016-04-30T11:03:44.929Z,40
2016-04-30T11:04:45.665Z,40
2016-04-30T11:05:44.621Z,40
2016-04-30T11:06:44.828Z,45
2016-04-30T11:07:44.798Z,45
2016-04-30T11:08:44.972Z,45
2016-04-30T11:09:44.976Z,45
2016-04-30T11:10:45.120Z,45
2016-04-30T11:11:44.981Z,50
2016-04-30T11:12:45.015Z,50
2016-04-30T11:13:44.861Z,50
2016-04-30T11:14:45.026Z,50
2016-04-30T11:15:45.010Z,50
2016-04-30T11:16:45.731Z,55
2016-04-30T11:17:45.062Z,55
2016-04-30T11:18:45.018Z,60
2016-04-30T11:19:45.990Z,60
2016-04-30T11:20:45.071Z,60
2016-04-30T11:21:44.885Z,55
2016-04-30T11:22:44.904Z,45
2016-04-30T11:23:45.062Z,45
2016-04-30T11:24:44.893Z,45
2016-04-30T11:25:45.068Z,45
2016-04-30T11:26:44.914Z,55
2016-04-30T11:27:44.932Z,60
2016-04-30T11:28:45.092Z,60
2016-04-30T11:29:45.094Z,60
2016-04-30T11:30:44.972Z,55
2016-04-30T11:31:45.100Z,55
2016-04-30T11:32:44.961Z,50
2016-04-30T11:33:44.995Z,55
2016-04-30T11:34:45.748Z,60
2016-04-30T11:35:45.126Z,60
2016-04-30T11:36:45.161Z,60
2016-04-30T11:37:45.147Z,60
2016-04-30T11:38:45.008Z,60
2016-04-30T11:39:44.839Z,55
2016-04-30T11:40:45.030Z,50
2016-04-30T11:41:45.188Z,45
2016-04-30T11:42:45.192Z,40
2016-04-30T11:43:45.038Z,45
2016-04-30T11:44:45.197Z,45
2016-04-30T11:45:45.060Z,40
2016-04-30T11:46:46.891Z,40
2016-04-30T11:47:45.065Z,45
2016-04-30T11:48:45.098Z,45
2016-04-30T11:49:45.788Z,50
2016-04-30T11:50:45.088Z,50
2016-04-30T11:51:45.232Z,45
2016-04-30T11:52:45.093Z,50
2016-04-30T11:53:45.252Z,50
2016-04-30T11:54:45.114Z,55
2016-04-30T11:55:45.117Z,60
2016-04-30T11:56:45.260Z,60
2016-04-30T11:57:45.279Z,65
2016-04-30T11:58:45.297Z,65
2016-04-30T11:59:45.159Z,65
2016-04-30T12:00:45.318Z,70
2016-04-30T12:01:45.306Z,70
2016-04-30T12:02:45.324Z,70
2016-04-30T12:03:45.028Z,75
2016-04-30T12:04:46.000Z,80
2016-04-30T12:05:45.192Z,85
2016-04-30T12:06:45.194Z,80
2016-04-30T12:07:45.369Z,80
2016-04-30T12:08:45.356Z,80
2016-04-30T12:09:45.358Z,80
2016-04-30T12:10:45.219Z,85
2016-04-30T12:11:45.379Z,85
2016-04-30T12:12:45.397Z,85
2016-04-30T12:13:45.244Z,85
2016-04-30T12:14:45.402Z,90
2016-04-30T12:15:45.405Z,90
2016-04-30T12:16:45.408Z,90
2016-04-30T12:17:45.410Z,95
2016-04-30T12:18:45.444Z,100
2016-04-30T12:19:45.401Z,100
2016-04-30T12:20:45.685Z,100
2016-04-30T12:21:45.452Z,100
2016-04-30T12:22:45.471Z,95
2016-04-30T12:23:45.457Z,90
2016-04-30T12:24:45.460Z,85
2016-04-30T12:25:45.323Z,85
2016-04-30T12:26:45.482Z,85
2016-04-30T12:27:45.329Z,80
2016-04-30T12:28:45.331Z,80
2016-04-30T12:29:45.349Z,75
2016-04-30T12:30:45.509Z,70
2016-04-30T12:31:45.511Z,75
2016-04-30T12:32:45.513Z,75
2016-04-30T12:33:45.531Z,85
2016-04-30T12:34:45.706Z,85
2016-04-30T12:35:45.397Z,90
2016-04-30T12:36:45.571Z,85
2016-04-30T12:37:45.558Z,75
2016-04-30T12:38:45.259Z,75
2016-04-30T12:39:45.709Z,75
2016-04-30T12:40:45.659Z,75
2016-04-30T12:41:45.421Z,80
2016-04-30T12:42:45.761Z,80
2016-04-30T12:43:45.812Z,80
2016-04-30T12:44:45.674Z,75
2016-04-30T12:45:45.692Z,75
2016-04-30T12:46:45.709Z,70
2016-04-30T12:47:45.899Z,70
2016-04-30T12:48:45.913Z,70
2016-04-30T12:49:45.936Z,70
2016-04-30T12:50:45.788Z,65
2016-04-30T12:51:45.796Z,65
2016-04-30T12:52:45.664Z,65
2016-04-30T12:53:45.983Z,65
2016-04-30T12:54:45.832Z,65
2016-04-30T12:55:45.836Z,60
2016-04-30T12:56:46.013Z,60
2016-04-30T12:57:46.018Z,65
2016-04-30T12:58:46.022Z,65
2016-04-30T12:59:46.025Z,65
2016-04-30T13:00:46.028Z,65
2016-04-30T13:01:46.032Z,65
2016-04-30T13:02:46.081Z,70
2016-04-30T13:03:46.053Z,70
2016-04-30T13:04:45.806Z,70
2016-04-30T13:05:46.059Z,70
2016-04-30T13:06:46.078Z,70
2016-04-30T13:07:46.080Z,70
2016-04-30T13:08:46.099Z,70
2016-04-30T13:09:45.945Z,70
2016-04-30T13:10:46.105Z,65
2016-04-30T13:11:46.123Z,65
2016-04-30T13:12:46.111Z,65
2016-04-30T13:13:45.972Z,60
2016-04-30T13:14:46.115Z,60
2016-04-30T13:15:46.149Z,55
2016-04-30T13:16:46.027Z,55
2016-04-30T13:17:45.999Z,50
2016-04-30T13:18:46.002Z,50
2016-04-30T13:19:46.880Z,45
2016-04-30T13:20:46.193Z,40
2016-04-30T13:21:46.243Z,35
2016-04-30T13:22:46.199Z,35
2016-04-30T13:23:46.108Z,30
2016-04-30T13:24:46.205Z,25
2016-04-30T13:25:45.926Z,25
2016-04-30T13:26:46.069Z,25
2016-04-30T13:27:46.229Z,20
2016-04-30T13:28:46.231Z,20
2016-04-30T13:29:46.234Z,20
2016-04-30T13:30:46.251Z,20
2016-04-30T13:31:46.254Z,15
2016-04-30T13:32:46.257Z,15
2016-04-30T13:33:45.948Z,15
2016-04-30T13:34:47.248Z,10
2016-04-30T13:35:46.265Z,10
2016-04-30T13:36:46.283Z,10
2016-04-30T13:37:46.318Z,10
2016-04-30T13:38:46.039Z,10
2016-04-30T13:39:46.292Z,10
2016-04-30T13:40:46.325Z,10
2016-04-30T13:41:46.157Z,10
2016-04-30T13:42:46.175Z,10
2016-04-30T13:43:46.319Z,10
2016-04-30T13:44:46.165Z,10
2016-04-30T13:45:46.183Z,10
2016-04-30T13:46:46.186Z,10
2016-04-30T13:47:46.219Z,10
2016-04-30T13:48:46.347Z,10
2016-04-30T13:49:48.147Z,10
2016-04-30T13:50:46.383Z,10
2016-04-30T13:51:46.230Z,10
2016-04-30T13:52:46.218Z,10
2016-04-30T13:53:46.252Z,10
2016-04-30T13:54:46.269Z,10
2016-04-30T13:55:46.413Z,10
2016-04-30T13:56:46.416Z,10
2016-04-30T13:57:46.419Z,10
2016-04-30T13:58:46.280Z,10
2016-04-30T13:59:46.283Z,10
2016-04-30T14:00:46.443Z,10
2016-04-30T14:02:00.401Z,5
2016-04-30T14:02:46.463Z,5
2016-04-30T14:03:46.466Z,5
2016-04-30T14:04:46.343Z,5
2016-04-30T14:05:46.471Z,5
2016-04-30T14:06:46.333Z,5
2016-04-30T14:07:46.336Z,5
2016-04-30T14:08:46.495Z,5
2016-04-30T14:09:46.373Z,5
2016-04-30T14:10:46.359Z,5
2016-04-30T14:11:46.519Z,5
2016-04-30T14:12:46.365Z,5
2016-04-30T14:13:46.539Z,5
2016-04-30T14:14:46.386Z,5
2016-04-30T14:15:46.545Z,5
2016-04-30T14:16:46.578Z,5
2016-04-30T14:17:46.660Z,5
2016-04-30T14:18:46.413Z,5
2016-04-30T14:19:47.212Z,5
2016-04-30T14:20:46.433Z,5
2016-04-30T14:21:46.436Z,5
2016-04-30T14:22:46.455Z,5
2016-04-30T14:23:46.597Z,5
2016-04-30T14:24:46.444Z,5
2016-04-30T14:25:46.618Z,5
2016-04-30T14:26:46.481Z,5
2016-04-30T14:27:46.624Z,5